createdAt,value
2022-12-01T00:01:06.604Z,101757.16
2022-12-01T00:03:33.616Z,101795.78
2022-12-01T00:06:05.171Z,101815.22
2022-12-01T00:08:32.415Z,101819.13
2022-12-01T00:11:07.169Z,101814.66
2022-12-01T00:13:34.396Z,101794.84
2022-12-01T00:16:15.384Z,101799.03
2022-12-01T00:18:43.041Z,101817.16
2022-12-01T00:21:21.500Z,101779.88
2022-12-01T00:23:51.031Z,101817.41
2022-12-01T00:26:18.550Z,101758.06
2022-12-01T00:28:49.758Z,101804.88
2022-12-01T00:31:16.308Z,101807.44
2022-12-01T00:33:43.058Z,101789.84
2022-12-01T00:36:10.029Z,101736.84
2022-12-01T00:38:37.069Z,101803.91
2022-12-01T00:41:04.138Z,101809.13
2022-12-01T00:43:30.679Z,101808.38
2022-12-01T00:45:57.354Z,101812.94
2022-12-01T00:48:23.989Z,101796.63
2022-12-01T00:50:52.057Z,101816.53
2022-12-01T00:53:19.025Z,101751.56
2022-12-01T00:55:45.855Z,101816.34
2022-12-01T00:58:12.499Z,101760.22
2022-12-01T01:00:39.713Z,101817.31
2022-12-01T01:03:07.101Z,101760.31
2022-12-01T01:05:37.800Z,101816.44
2022-12-01T01:08:11.648Z,101805.91
2022-12-01T01:10:42.968Z,101831.44
2022-12-01T01:13:10.243Z,101832.84
2022-12-01T01:15:37.357Z,101832.22
2022-12-01T01:18:05.011Z,101836.59
2022-12-01T01:20:31.845Z,101826.78
2022-12-01T01:22:58.539Z,101791.09
2022-12-01T01:25:25.414Z,101840.72
2022-12-01T01:27:51.885Z,101807.13
2022-12-01T01:30:18.697Z,101781.16
2022-12-01T01:32:45.186Z,101830.06
2022-12-01T01:35:11.780Z,101828.88
2022-12-01T01:37:38.361Z,101815.84
2022-12-01T01:40:05.823Z,101847.19
2022-12-01T01:42:32.399Z,101839.91
2022-12-01T01:44:59.570Z,101786.19
2022-12-01T01:47:35.860Z,101837.41
2022-12-01T01:50:09.306Z,101840.69
2022-12-01T01:52:38.532Z,101794.94
2022-12-01T01:55:05.546Z,101854.72
2022-12-01T01:57:33.370Z,101839.50
2022-12-01T02:00:11.269Z,101849.31
2022-12-01T02:02:44.967Z,101829.31
2022-12-01T02:05:27.143Z,101853.84
2022-12-01T02:07:56.168Z,101817.44
2022-12-01T02:10:39.389Z,101814.03
2022-12-01T02:13:13.944Z,101814.91
2022-12-01T02:15:56.569Z,101706.84
2022-12-01T02:18:44.523Z,101846.16
2022-12-01T02:21:40.536Z,101847.91
2022-12-01T02:24:44.525Z,101849.56
2022-12-01T02:27:52.286Z,101842.72
2022-12-01T02:30:57.377Z,101836.16
2022-12-01T02:33:27.848Z,101851.06
2022-12-01T02:35:57.198Z,101840.59
2022-12-01T02:38:47.487Z,101834.50
2022-12-01T02:41:26.998Z,101741.25
2022-12-01T02:44:15.979Z,101787.09
2022-12-01T02:46:49.947Z,101828.47
2022-12-01T02:49:19.806Z,101824.94
2022-12-01T02:51:46.327Z,101840.03
2022-12-01T02:54:14.686Z,101839.50
2022-12-01T02:56:44.419Z,101839.91
2022-12-01T02:59:12.188Z,101843.03
2022-12-01T03:02:04.311Z,101822.47
2022-12-01T03:05:00.012Z,101817.16
2022-12-01T03:07:35.718Z,101832.09
2022-12-01T03:10:37.056Z,101840.44
2022-12-01T03:13:20.167Z,101838.84
2022-12-01T03:16:05.723Z,101840.47
2022-12-01T03:18:56.152Z,101841.34
2022-12-01T03:21:41.709Z,101837.78
2022-12-01T03:24:11.758Z,101840.34
2022-12-01T03:26:41.345Z,101832.97
2022-12-01T03:29:15.908Z,101821.72
2022-12-01T03:31:47.704Z,101842.81
2022-12-01T03:34:18.331Z,101847.72
2022-12-01T03:36:52.907Z,101790.50
2022-12-01T03:39:23.240Z,101828.53
2022-12-01T03:41:58.489Z,101839.47
2022-12-01T03:44:30.077Z,101845.44
2022-12-01T03:47:02.100Z,101829.00
2022-12-01T03:49:29.016Z,101839.75
2022-12-01T03:52:03.275Z,101833.25
2022-12-01T03:54:44.971Z,101837.38
2022-12-01T03:57:15.079Z,101843.88
2022-12-01T03:59:42.780Z,101826.84
2022-12-01T04:02:09.375Z,101832.63
2022-12-01T04:04:35.993Z,101846.06
2022-12-01T04:07:02.745Z,101835.00
2022-12-01T04:09:29.207Z,101703.59
2022-12-01T04:12:14.260Z,101819.59
2022-12-01T04:14:41.971Z,101843.28
2022-12-01T04:17:09.055Z,101828.72
2022-12-01T04:19:35.569Z,101836.84
2022-12-01T04:22:02.084Z,101842.72
2022-12-01T04:24:28.791Z,101827.41
2022-12-01T04:26:55.271Z,101838.31
2022-12-01T04:29:21.776Z,101845.25
2022-12-01T04:31:48.303Z,101834.88
2022-12-01T04:34:14.817Z,101825.84
2022-12-01T04:36:41.355Z,101805.44
2022-12-01T04:39:07.869Z,101851.38
2022-12-01T04:41:34.478Z,101768.47
2022-12-01T04:44:00.991Z,101824.03
2022-12-01T04:46:27.831Z,101835.47
2022-12-01T04:48:54.499Z,101843.63
2022-12-01T04:51:22.251Z,101776.50
2022-12-01T04:53:50.009Z,101839.84
2022-12-01T04:56:16.576Z,101826.94
2022-12-01T04:58:43.298Z,101837.53
2022-12-01T05:01:14.574Z,101798.66
2022-12-01T05:03:43.462Z,101841.56
2022-12-01T05:06:15.264Z,101782.72
2022-12-01T05:08:41.883Z,101847.59
2022-12-01T05:11:11.229Z,101816.91
2022-12-01T05:13:40.047Z,101831.25
2022-12-01T05:16:17.644Z,101844.78
2022-12-01T05:18:47.870Z,101839.41
2022-12-01T05:21:14.619Z,101852.03
2022-12-01T05:23:41.147Z,101850.50
2022-12-01T05:26:08.649Z,101856.44
2022-12-01T05:28:35.533Z,101853.38
2022-12-01T05:31:02.627Z,101852.16
2022-12-01T05:33:29.987Z,101829.44
2022-12-01T05:35:57.049Z,101864.81
2022-12-01T05:38:24.178Z,101856.72
2022-12-01T05:40:51.817Z,101834.59
2022-12-01T05:43:21.661Z,101855.00
2022-12-01T05:45:51.937Z,101820.31
2022-12-01T05:48:18.549Z,101850.59
2022-12-01T05:50:45.143Z,101815.47
2022-12-01T05:53:13.668Z,101858.59
2022-12-01T05:55:40.280Z,101822.06
2022-12-01T05:58:07.400Z,101857.63
2022-12-01T06:00:34.345Z,101853.13
2022-12-01T06:03:01.020Z,101848.22
2022-12-01T06:05:27.784Z,101870.91
2022-12-01T06:07:54.417Z,101820.00
2022-12-01T06:10:21.132Z,101831.94
2022-12-01T06:12:47.705Z,101796.47
2022-12-01T06:15:14.320Z,101876.81
2022-12-01T06:17:40.814Z,101872.66
2022-12-01T06:20:08.515Z,101866.19
2022-12-01T06:22:35.076Z,101810.94
2022-12-01T06:25:01.578Z,101845.81
2022-12-01T06:27:28.337Z,101874.84
2022-12-01T06:29:54.793Z,101860.84
2022-12-01T06:32:21.336Z,101869.38
2022-12-01T06:34:47.803Z,101667.16
2022-12-01T06:37:15.664Z,101843.44
2022-12-01T06:39:42.555Z,101831.66
2022-12-01T06:42:09.384Z,101869.38
2022-12-01T06:44:35.916Z,101873.63
2022-12-01T06:47:02.457Z,101867.09
2022-12-01T06:49:29.006Z,101831.63
2022-12-01T06:51:55.648Z,101855.75
2022-12-01T06:54:22.262Z,101880.88
2022-12-01T06:56:48.773Z,101881.34
2022-12-01T06:59:15.663Z,101890.88
2022-12-01T07:01:42.489Z,101848.44
2022-12-01T07:04:09.007Z,101893.31
2022-12-01T07:06:35.532Z,101882.16
2022-12-01T07:09:02.078Z,101861.66
2022-12-01T07:11:30.038Z,101858.59
2022-12-01T07:13:56.712Z,101848.50
2022-12-01T07:16:23.424Z,101867.13
2022-12-01T07:18:50.140Z,101841.75
2022-12-01T07:21:17.181Z,101840.22
2022-12-01T07:23:43.899Z,101889.09
2022-12-01T07:26:12.788Z,101839.44
2022-12-01T07:28:39.623Z,101915.25
2022-12-01T07:31:17.147Z,101911.31
2022-12-01T07:33:43.913Z,101903.75
2022-12-01T07:36:11.740Z,101907.59
2022-12-01T07:38:39.128Z,101882.03
2022-12-01T07:41:08.163Z,101909.47
2022-12-01T07:43:35.199Z,101892.94
2022-12-01T07:46:10.032Z,101857.72
2022-12-01T07:48:37.864Z,101917.09
2022-12-01T07:51:09.692Z,101908.47
2022-12-01T07:53:36.450Z,101900.91
2022-12-01T07:56:08.377Z,101917.22
2022-12-01T07:58:35.990Z,101900.59
2022-12-01T08:01:15.475Z,101922.84
2022-12-01T08:03:42.407Z,101918.22
2022-12-01T08:06:09.667Z,101921.97
2022-12-01T08:08:38.668Z,101876.44
2022-12-01T08:11:07.654Z,101932.63
2022-12-01T08:13:34.344Z,101919.47
2022-12-01T08:16:06.495Z,101879.91
2022-12-01T08:18:37.358Z,101929.81
2022-12-01T08:21:04.807Z,101934.22
2022-12-01T08:23:31.294Z,101935.44
2022-12-01T08:26:02.190Z,101904.97
2022-12-01T08:28:28.905Z,101917.09
2022-12-01T08:30:56.097Z,101910.09
2022-12-01T08:33:22.677Z,101935.09
2022-12-01T08:35:49.258Z,101872.84
2022-12-01T08:38:15.952Z,101923.13
2022-12-01T08:40:42.404Z,101899.69
2022-12-01T08:43:12.344Z,101942.31
2022-12-01T08:45:45.207Z,101927.34
2022-12-01T08:48:11.783Z,101899.97
2022-12-01T08:50:38.259Z,101933.25
2022-12-01T08:53:04.783Z,101891.22
2022-12-01T08:55:31.328Z,101938.69
2022-12-01T08:57:58.417Z,101940.94
2022-12-01T09:00:25.265Z,101902.66
2022-12-01T09:02:51.808Z,101927.66
2022-12-01T09:05:18.572Z,101940.91
2022-12-01T09:08:04.989Z,101897.31
2022-12-01T09:10:31.501Z,101920.31
2022-12-01T09:12:58.081Z,101953.69
2022-12-01T09:15:24.584Z,101945.13
2022-12-01T09:17:51.105Z,101890.91
2022-12-01T09:20:17.592Z,101906.03
2022-12-01T09:22:44.029Z,101955.81
2022-12-01T09:25:14.666Z,101906.56
2022-12-01T09:27:41.184Z,101950.88
2022-12-01T09:30:08.312Z,101929.47
2022-12-01T09:32:35.210Z,101942.03
2022-12-01T09:35:01.663Z,101947.72
2022-12-01T09:37:28.240Z,101950.75
2022-12-01T09:39:55.788Z,101948.91
2022-12-01T09:42:30.819Z,101941.34
2022-12-01T09:45:02.787Z,101955.06
2022-12-01T09:47:31.883Z,101951.69
2022-12-01T09:50:07.633Z,101941.91
2022-12-01T09:52:40.303Z,101948.13
2022-12-01T09:55:12.039Z,101945.72
2022-12-01T09:57:40.342Z,101944.25
2022-12-01T10:00:16.526Z,101947.63
2022-12-01T10:02:49.220Z,101951.38
2022-12-01T10:05:22.765Z,101933.38
2022-12-01T10:07:56.529Z,101947.00
2022-12-01T10:10:30.784Z,101949.03
2022-12-01T10:12:57.450Z,101891.88
2022-12-01T10:15:30.010Z,101938.09
2022-12-01T10:18:05.618Z,101945.22
2022-12-01T10:20:39.544Z,101935.41
2022-12-01T10:23:06.394Z,101934.81
2022-12-01T10:25:41.507Z,101936.56
2022-12-01T10:28:20.279Z,101917.31
2022-12-01T10:30:51.797Z,101903.16
2022-12-01T10:33:34.271Z,101929.81
2022-12-01T10:36:00.936Z,101932.00
2022-12-01T10:38:35.090Z,101873.72
2022-12-01T10:41:02.676Z,101926.63
2022-12-01T10:43:34.338Z,101923.66
2022-12-01T10:46:25.399Z,101922.50
2022-12-01T10:48:56.788Z,101918.81
2022-12-01T10:51:23.848Z,101915.59
2022-12-01T10:53:50.824Z,101913.13
2022-12-01T10:56:19.518Z,101897.44
2022-12-01T10:58:50.541Z,101879.19
2022-12-01T11:01:20.911Z,101893.63
2022-12-01T11:04:01.526Z,101897.56
2022-12-01T11:06:29.704Z,101906.63
2022-12-01T11:09:22.818Z,101881.69
2022-12-01T11:12:01.729Z,101881.88
2022-12-01T11:14:37.248Z,101884.44
2022-12-01T11:17:22.524Z,101910.53
2022-12-01T11:19:49.528Z,101897.84
2022-12-01T11:22:22.323Z,101906.41
2022-12-01T11:25:03.463Z,101913.53
2022-12-01T11:27:51.160Z,101906.50
2022-12-01T11:30:29.277Z,101883.00
2022-12-01T11:32:58.544Z,101920.50
2022-12-01T11:35:28.472Z,101862.56
2022-12-01T11:38:28.205Z,101862.28
2022-12-01T11:40:50.462Z,101914.34
2022-12-01T11:43:24.940Z,101860.84
2022-12-01T11:45:51.854Z,101904.97
2022-12-01T11:48:25.900Z,101899.25
2022-12-01T11:51:06.280Z,101893.59
2022-12-01T11:53:34.697Z,101898.31
2022-12-01T11:56:20.792Z,101891.81
2022-12-01T11:58:48.772Z,101877.38
2022-12-01T12:01:32.367Z,101894.66
2022-12-01T12:04:03.853Z,101895.34
2022-12-01T12:06:46.168Z,101893.25
2022-12-01T12:09:54.551Z,101903.03
2022-12-01T12:12:36.366Z,101898.13
2022-12-01T12:15:18.465Z,101895.66
2022-12-01T12:17:54.198Z,101891.81
2022-12-01T12:20:29.718Z,101896.19
2022-12-01T12:23:24.728Z,101889.09
2022-12-01T12:26:06.520Z,101892.34
2022-12-01T12:29:17.122Z,101900.13
2022-12-01T12:32:04.798Z,101887.03
2022-12-01T12:34:53.146Z,101893.66
2022-12-01T12:37:35.498Z,101887.41
2022-12-01T12:40:36.166Z,101893.53
2022-12-01T12:43:14.855Z,101885.72
2022-12-01T12:46:00.717Z,101883.75
2022-12-01T12:48:30.197Z,101884.88
2022-12-01T12:51:05.694Z,101880.63
2022-12-01T12:53:38.904Z,101870.09
2022-12-01T12:56:08.031Z,101865.66
2022-12-01T12:58:37.844Z,101842.69
2022-12-01T13:01:17.885Z,101877.63
2022-12-01T13:04:00.729Z,101873.00
2022-12-01T13:06:36.329Z,101847.19
2022-12-01T13:09:11.509Z,101869.16
2022-12-01T13:11:57.915Z,101865.88
2022-12-01T13:14:38.641Z,101860.38
2022-12-01T13:17:28.549Z,101825.44
2022-12-01T13:19:55.029Z,101858.00
2022-12-01T13:22:24.993Z,101830.63
2022-12-01T13:24:51.454Z,101853.41
2022-12-01T13:27:20.591Z,101825.72
2022-12-01T13:29:49.898Z,101859.00
2022-12-01T13:32:37.580Z,101815.94
2022-12-01T13:35:29.360Z,101850.16
2022-12-01T13:38:14.235Z,101847.44
2022-12-01T13:40:40.649Z,101792.88
2022-12-01T13:43:17.965Z,101814.44
2022-12-01T13:45:44.683Z,101794.09
2022-12-01T13:48:29.703Z,101835.69
2022-12-01T13:51:01.955Z,101806.38
2022-12-01T13:53:38.349Z,101837.66
2022-12-01T13:56:07.980Z,101827.44
2022-12-01T13:58:34.491Z,101835.69
2022-12-01T14:01:19.748Z,101842.50
2022-12-01T14:03:53.623Z,101842.53
2022-12-01T14:06:46.347Z,101842.00
2022-12-01T14:09:21.557Z,101839.13
2022-12-01T14:12:00.827Z,101840.34
2022-12-01T14:14:32.849Z,101834.81
2022-12-01T14:17:02.487Z,101837.63
2022-12-01T14:19:32.757Z,101840.22
2022-12-01T14:22:05.543Z,101847.59
2022-12-01T14:24:34.950Z,101816.00
2022-12-01T14:27:02.392Z,101851.84
2022-12-01T14:29:43.198Z,101837.13
2022-12-01T14:32:09.648Z,101842.72
2022-12-01T14:34:37.259Z,101840.88
2022-12-01T14:37:05.581Z,101839.25
2022-12-01T14:39:35.008Z,101851.19
2022-12-01T14:42:04.211Z,101822.63
2022-12-01T14:44:36.452Z,101855.16
2022-12-01T14:47:21.497Z,101852.53
2022-12-01T14:49:51.115Z,101847.34
2022-12-01T14:52:48.250Z,101855.81
2022-12-01T14:55:23.586Z,101860.09
2022-12-01T14:57:52.536Z,101856.72
2022-12-01T15:00:23.132Z,101839.94
2022-12-01T15:02:55.084Z,101859.38
2022-12-01T15:05:27.372Z,101862.19
2022-12-01T15:08:40.260Z,101862.88
2022-12-01T15:11:09.411Z,101876.06
2022-12-01T15:13:54.917Z,101869.91
2022-12-01T15:16:28.121Z,101872.13
2022-12-01T15:18:55.496Z,101864.88
2022-12-01T15:21:24.071Z,101873.72
2022-12-01T15:23:56.601Z,101878.75
2022-12-01T15:26:24.835Z,101879.22
2022-12-01T15:29:04.791Z,101882.19
2022-12-01T15:31:31.727Z,101834.63
2022-12-01T15:33:58.342Z,101847.63
2022-12-01T15:36:24.927Z,101895.84
2022-12-01T15:38:51.508Z,101900.63
2022-12-01T15:41:30.259Z,101877.84
2022-12-01T15:44:00.385Z,101895.34
2022-12-01T15:46:29.069Z,101901.91
2022-12-01T15:49:20.753Z,101892.13
2022-12-01T15:51:49.004Z,101889.41
2022-12-01T15:54:23.174Z,101889.97
2022-12-01T15:56:58.488Z,101891.22
2022-12-01T15:59:36.575Z,101857.84
2022-12-01T16:02:26.419Z,101859.47
2022-12-01T16:05:20.059Z,101881.63
2022-12-01T16:08:12.740Z,101881.38
2022-12-01T16:10:36.410Z,101876.75
2022-12-01T16:13:43.083Z,101868.78
2022-12-01T16:16:31.191Z,101868.75
2022-12-01T16:18:57.805Z,101873.75
2022-12-01T16:21:25.347Z,101836.13
2022-12-01T16:24:00.148Z,101829.25
2022-12-01T16:26:26.897Z,101826.63
2022-12-01T16:28:54.434Z,101864.06
2022-12-01T16:31:21.148Z,101844.84
2022-12-01T16:33:47.751Z,101782.34
2022-12-01T16:36:14.840Z,101875.97
2022-12-01T16:38:41.609Z,101867.31
2022-12-01T16:41:16.630Z,101881.06
2022-12-01T16:43:54.509Z,101824.31
2022-12-01T16:46:30.762Z,101846.06
2022-12-01T16:48:57.303Z,101827.38
2022-12-01T16:51:29.979Z,101829.31
2022-12-01T16:54:09.496Z,101875.66
2022-12-01T16:56:35.985Z,101888.16
2022-12-01T16:59:02.500Z,101890.53
2022-12-01T17:01:29.464Z,101834.88
2022-12-01T17:03:56.207Z,101869.41
2022-12-01T17:06:22.784Z,101863.88
2022-12-01T17:08:49.517Z,101888.03
2022-12-01T17:11:15.989Z,101817.56
2022-12-01T17:13:42.535Z,101903.88
2022-12-01T17:16:15.231Z,101908.66
2022-12-01T17:18:44.484Z,101906.31
2022-12-01T17:21:11.594Z,101903.19
2022-12-01T17:23:38.818Z,101866.97
2022-12-01T17:26:10.522Z,101902.78
2022-12-01T17:28:37.545Z,101865.75
2022-12-01T17:31:04.657Z,101899.88
2022-12-01T17:33:31.868Z,101852.22
2022-12-01T17:36:03.941Z,101880.72
2022-12-01T17:38:30.851Z,101857.63
2022-12-01T17:41:02.435Z,101899.94
2022-12-01T17:43:29.139Z,101851.25
2022-12-01T17:45:56.015Z,101869.56
2022-12-01T17:48:22.599Z,101905.06
2022-12-01T17:50:49.098Z,101827.13
2022-12-01T17:53:15.740Z,101866.91
2022-12-01T17:55:42.480Z,101861.84
2022-12-01T17:58:09.155Z,101904.06
2022-12-01T18:00:35.747Z,101839.44
2022-12-01T18:03:02.325Z,101907.81
2022-12-01T18:05:29.494Z,101822.31
2022-12-01T18:07:56.043Z,101881.22
2022-12-01T18:10:22.552Z,101907.31
2022-12-01T18:12:49.133Z,101902.53
2022-12-01T18:15:17.371Z,101900.31
2022-12-01T18:17:43.865Z,101882.53
2022-12-01T18:20:10.688Z,101885.31
2022-12-01T18:22:37.151Z,101895.19
2022-12-01T18:25:03.694Z,101843.78
2022-12-01T18:27:30.187Z,101868.97
2022-12-01T18:29:56.717Z,101903.06
2022-12-01T18:32:23.504Z,101911.06
2022-12-01T18:34:50.366Z,101877.47
2022-12-01T18:37:16.968Z,101867.09
2022-12-01T18:39:43.456Z,101904.69
2022-12-01T18:42:11.087Z,101918.25
2022-12-01T18:44:38.845Z,101916.00
2022-12-01T18:47:06.532Z,101791.09
2022-12-01T18:49:33.221Z,101902.38
2022-12-01T18:52:00.320Z,101914.50
2022-12-01T18:54:26.960Z,101872.69
2022-12-01T18:56:55.016Z,101900.41
2022-12-01T18:59:21.694Z,101875.28
2022-12-01T19:01:48.607Z,101909.13
2022-12-01T19:04:16.523Z,101906.63
2022-12-01T19:06:44.588Z,101909.69
2022-12-01T19:09:12.508Z,101896.84
2022-12-01T19:11:40.555Z,101903.28
2022-12-01T19:14:08.114Z,101916.06
2022-12-01T19:16:34.905Z,101899.16
2022-12-01T19:19:01.823Z,101906.72
2022-12-01T19:21:28.468Z,101861.47
2022-12-01T19:23:54.966Z,101886.09
2022-12-01T19:26:22.414Z,101859.25
2022-12-01T19:28:49.259Z,101896.59
2022-12-01T19:31:23.963Z,101903.94
2022-12-01T19:33:52.323Z,101903.50
2022-12-01T19:36:24.006Z,101901.75
2022-12-01T19:38:50.876Z,101905.06
2022-12-01T19:41:20.648Z,101889.03
2022-12-01T19:43:47.543Z,101907.41
2022-12-01T19:46:20.468Z,101908.25
2022-12-01T19:48:47.700Z,101900.41
2022-12-01T19:51:22.971Z,101906.88
2022-12-01T19:53:50.126Z,101898.41
2022-12-01T19:56:16.702Z,101895.69
2022-12-01T19:58:44.157Z,101904.34
2022-12-01T20:01:13.200Z,101909.28
2022-12-01T20:03:40.904Z,101887.16
2022-12-01T20:06:12.759Z,101887.56
2022-12-01T20:08:39.627Z,101911.56
2022-12-01T20:11:07.091Z,101899.16
2022-12-01T20:13:38.570Z,101907.84
2022-12-01T20:16:06.513Z,101862.97
2022-12-01T20:18:33.108Z,101915.44
2022-12-01T20:21:16.309Z,101906.53
2022-12-01T20:23:44.459Z,101897.00
2022-12-01T20:26:11.974Z,101899.28
2022-12-01T20:28:39.589Z,101881.09
2022-12-01T20:31:11.914Z,101900.00
2022-12-01T20:33:39.329Z,101892.41
2022-12-01T20:36:06.518Z,101896.03
2022-12-01T20:38:33.182Z,101892.47
2022-12-01T20:40:59.741Z,101889.78
2022-12-01T20:43:26.372Z,101890.59
2022-12-01T20:45:52.910Z,101895.31
2022-12-01T20:48:19.502Z,101863.06
2022-12-01T20:50:46.255Z,101896.69
2022-12-01T20:53:13.109Z,101814.00
2022-12-01T20:55:39.928Z,101900.28
2022-12-01T20:58:09.836Z,101894.28
2022-12-01T21:00:44.288Z,101894.66
2022-12-01T21:03:11.744Z,101897.22
2022-12-01T21:05:39.928Z,101894.72
2022-12-01T21:08:08.197Z,101897.72
2022-12-01T21:10:39.021Z,101851.63
2022-12-01T21:13:42.299Z,101880.59
2022-12-01T21:16:14.204Z,101891.88
2022-12-01T21:18:51.986Z,101897.19
2022-12-01T21:21:34.338Z,101904.69
2022-12-01T21:24:13.982Z,101901.78
2022-12-01T21:26:42.378Z,101892.09
2022-12-01T21:29:24.741Z,101897.09
2022-12-01T21:31:53.608Z,101898.13
2022-12-01T21:34:25.207Z,101892.00
2022-12-01T21:36:55.167Z,101894.19
2022-12-01T21:39:23.481Z,101885.75
2022-12-01T21:41:52.372Z,101882.44
2022-12-01T21:44:20.872Z,101839.63
2022-12-01T21:46:51.126Z,101846.84
2022-12-01T21:49:19.769Z,101882.38
2022-12-01T21:51:47.834Z,101876.34
2022-12-01T21:54:22.295Z,101867.97
2022-12-01T21:56:49.440Z,101856.16
2022-12-01T21:59:22.441Z,101858.16
2022-12-01T22:01:53.125Z,101849.56
2022-12-01T22:04:25.299Z,101825.78
2022-12-01T22:06:55.118Z,101852.63
2022-12-01T22:09:33.622Z,101830.22
2022-12-01T22:12:12.692Z,101842.91
2022-12-01T22:14:39.153Z,101799.47
2022-12-01T22:17:05.587Z,101847.56
2022-12-01T22:19:38.172Z,101812.56
2022-12-01T22:22:10.673Z,101843.13
2022-12-01T22:24:49.191Z,101843.22
2022-12-01T22:27:29.497Z,101838.00
2022-12-01T22:29:58.328Z,101827.66
2022-12-01T22:32:33.279Z,101831.41
2022-12-01T22:35:26.027Z,101828.66
2022-12-01T22:38:08.701Z,101827.75
2022-12-01T22:41:06.061Z,101830.28
2022-12-01T22:43:59.547Z,101831.88
2022-12-01T22:46:30.614Z,101834.84
2022-12-01T22:49:04.749Z,101790.94
2022-12-01T22:51:42.007Z,101825.47
2022-12-01T22:54:14.647Z,101829.22
2022-12-01T22:56:46.525Z,101827.91
2022-12-01T22:59:16.160Z,101831.66
2022-12-01T23:01:54.251Z,101778.97
2022-12-01T23:04:28.617Z,101794.84
2022-12-01T23:07:22.957Z,101826.59
2022-12-01T23:09:49.590Z,101801.91
2022-12-01T23:12:30.487Z,101819.41
2022-12-01T23:15:18.763Z,101817.06
2022-12-01T23:17:45.210Z,101811.63
2022-12-01T23:20:25.091Z,101815.69
2022-12-01T23:22:56.242Z,101805.56
2022-12-01T23:25:23.542Z,101800.91
2022-12-01T23:27:52.911Z,101804.63
2022-12-01T23:30:21.269Z,101810.38
2022-12-01T23:32:56.319Z,101803.78
2022-12-01T23:35:22.803Z,101797.63
2022-12-01T23:37:49.265Z,101795.91
2022-12-01T23:40:20.260Z,101797.41
2022-12-01T23:42:47.178Z,101794.53
2022-12-01T23:45:21.779Z,101732.53
2022-12-01T23:47:49.370Z,101734.63
2022-12-01T23:50:30.492Z,101786.84
2022-12-01T23:52:57.578Z,101790.16
2022-12-01T23:55:29.867Z,101789.09
2022-12-01T23:57:57.127Z,101784.94
